createdAt,value
2022-10-06T00:00:26.032Z,16.629999
2022-10-06T00:03:51.223Z,16.610001
2022-10-06T00:07:16.381Z,16.59
2022-10-06T00:10:41.583Z,16.59
2022-10-06T00:14:06.741Z,16.59
2022-10-06T00:17:31.903Z,16.57
2022-10-06T00:20:57.073Z,16.58
2022-10-06T00:24:22.248Z,16.58
2022-10-06T00:27:47.472Z,16.57
2022-10-06T00:31:12.681Z,16.57
2022-10-06T00:34:37.798Z,16.59
2022-10-06T00:38:02.957Z,16.6
2022-10-06T00:41:28.171Z,16.620001
2022-10-06T00:44:53.365Z,16.59
2022-10-06T00:48:18.532Z,16.57
2022-10-06T00:51:43.714Z,16.57
2022-10-06T00:55:08.889Z,16.559999
2022-10-06T00:58:34.084Z,16.540001
2022-10-06T01:01:59.399Z,16.549999
2022-10-06T01:05:24.543Z,16.559999
2022-10-06T01:08:49.717Z,16.549999
2022-10-06T01:12:14.897Z,16.57
2022-10-06T01:15:40.167Z,16.610001
2022-10-06T01:19:05.249Z,16.59
2022-10-06T01:22:30.401Z,16.59
2022-10-06T01:25:55.556Z,16.6
2022-10-06T01:29:20.735Z,16.59
2022-10-06T01:32:45.925Z,16.59
2022-10-06T01:36:11.127Z,16.57
2022-10-06T01:39:36.267Z,16.57
2022-10-06T01:43:01.440Z,16.58
2022-10-06T01:46:26.647Z,16.59
2022-10-06T01:49:51.770Z,16.59
2022-10-06T01:53:16.974Z,16.59
2022-10-06T01:56:42.132Z,16.58
2022-10-06T02:00:07.307Z,16.559999
2022-10-06T02:03:32.485Z,16.549999
2022-10-06T02:06:57.643Z,16.540001
2022-10-06T02:10:22.833Z,16.559999
2022-10-06T02:13:48.008Z,16.57
2022-10-06T02:17:13.171Z,16.559999
2022-10-06T02:20:38.337Z,16.52
2022-10-06T02:24:03.508Z,16.51
2022-10-06T02:27:28.709Z,16.49
2022-10-06T02:30:53.857Z,16.49
2022-10-06T02:34:18.985Z,16.5
2022-10-06T02:37:44.145Z,16.51
2022-10-06T02:41:09.318Z,16.52
2022-10-06T02:44:34.506Z,16.530001
2022-10-06T02:47:59.641Z,16.530001
2022-10-06T02:51:24.822Z,16.51
2022-10-06T02:54:49.982Z,16.49
2022-10-06T02:58:15.159Z,16.5
2022-10-06T03:01:40.411Z,16.49
2022-10-06T03:05:05.488Z,16.5
2022-10-06T03:08:31.091Z,16.540001
2022-10-06T03:11:55.831Z,16.549999
2022-10-06T03:15:21.018Z,16.58
2022-10-06T03:18:46.215Z,16.58
2022-10-06T03:22:11.372Z,16.559999
2022-10-06T03:25:36.561Z,16.549999
2022-10-06T03:29:01.722Z,16.559999
2022-10-06T03:32:26.877Z,16.559999
2022-10-06T03:35:52.065Z,16.559999
2022-10-06T03:39:17.193Z,16.530001
2022-10-06T03:42:42.369Z,16.52
2022-10-06T03:46:07.514Z,16.49
2022-10-06T03:49:32.676Z,16.5
2022-10-06T03:52:57.863Z,16.49
2022-10-06T03:56:22.974Z,16.5
2022-10-06T03:59:48.125Z,16.49
2022-10-06T04:03:13.428Z,16.51
2022-10-06T04:06:38.613Z,16.540001
2022-10-06T04:10:03.909Z,16.57
2022-10-06T04:13:28.943Z,16.57
2022-10-06T04:16:54.104Z,16.57
2022-10-06T04:20:19.329Z,16.610001
2022-10-06T04:23:44.515Z,16.610001
2022-10-06T04:27:09.842Z,16.59
2022-10-06T04:30:34.834Z,16.610001
2022-10-06T04:34:00.005Z,16.610001
2022-10-06T04:37:25.320Z,16.6
2022-10-06T04:40:50.459Z,16.6
2022-10-06T04:44:15.677Z,16.6
2022-10-06T04:47:40.802Z,16.57
2022-10-06T04:51:05.962Z,16.57
2022-10-06T04:54:33.645Z,16.57
2022-10-06T04:57:56.298Z,16.57
2022-10-06T05:01:21.547Z,16.530001
2022-10-06T05:04:46.611Z,16.540001
2022-10-06T05:08:11.778Z,16.51
2022-10-06T05:11:36.969Z,16.469999
2022-10-06T05:15:02.117Z,16.459999
2022-10-06T05:18:27.635Z,16.459999
2022-10-06T05:21:52.445Z,16.440001
2022-10-06T05:25:17.650Z,16.42
2022-10-06T05:28:42.886Z,16.42
2022-10-06T05:32:08.087Z,16.42
2022-10-06T05:35:33.164Z,16.43
2022-10-06T05:38:58.303Z,16.42
2022-10-06T05:42:27.485Z,16.43
2022-10-06T05:45:48.621Z,16.440001
2022-10-06T05:49:13.792Z,16.450001
2022-10-06T05:52:39.009Z,16.440001
2022-10-06T05:56:04.159Z,16.41
2022-10-06T05:59:29.328Z,16.42
2022-10-06T06:02:54.540Z,16.42
2022-10-06T06:06:19.698Z,16.41
2022-10-06T06:09:44.936Z,16.450001
2022-10-06T06:13:10.102Z,16.459999
2022-10-06T06:16:35.319Z,16.5
2022-10-06T06:20:00.458Z,16.51
2022-10-06T06:23:25.647Z,16.530001
2022-10-06T06:26:50.937Z,16.58
2022-10-06T06:30:16.096Z,16.639999
2022-10-06T06:33:41.278Z,16.67
2022-10-06T06:37:09.517Z,16.700001
2022-10-06T06:40:31.691Z,16.73
2022-10-06T06:43:56.979Z,16.74
2022-10-06T06:47:23.171Z,16.77
2022-10-06T06:50:47.312Z,16.790001
2022-10-06T06:54:12.499Z,16.809999
2022-10-06T06:57:37.683Z,16.82
2022-10-06T07:01:02.998Z,16.84
2022-10-06T07:04:28.170Z,16.85
2022-10-06T07:07:53.354Z,16.85
2022-10-06T07:11:18.539Z,16.860001
2022-10-06T07:14:43.754Z,16.84
2022-10-06T07:18:09.003Z,16.84
2022-10-06T07:21:34.157Z,16.85
2022-10-06T07:24:59.361Z,16.77
2022-10-06T07:28:24.583Z,16.67
2022-10-06T07:31:49.768Z,16.51
2022-10-06T07:35:15.018Z,16.360001
2022-10-06T07:38:40.185Z,16.139999
2022-10-06T07:42:05.340Z,16
2022-10-06T07:45:30.579Z,15.91
2022-10-06T07:48:55.719Z,15.87
2022-10-06T07:52:20.909Z,15.9
2022-10-06T07:55:46.078Z,15.91
2022-10-06T07:59:11.298Z,15.94
2022-10-06T08:02:36.531Z,16
2022-10-06T08:06:01.705Z,16.049999
2022-10-06T08:09:26.942Z,16.08
2022-10-06T08:12:52.101Z,16.08
2022-10-06T08:16:17.409Z,16.040001
2022-10-06T08:19:42.538Z,16.030001
2022-10-06T08:23:07.728Z,15.99
2022-10-06T08:26:32.986Z,15.96
2022-10-06T08:29:58.147Z,15.88
2022-10-06T08:33:23.301Z,15.84
2022-10-06T08:37:02.355Z,15.84
2022-10-06T08:40:13.739Z,15.85
2022-10-06T08:43:39.105Z,15.86
2022-10-06T08:47:04.162Z,15.91
2022-10-06T08:50:29.381Z,16.02
2022-10-06T08:53:54.606Z,16.129999
2022-10-06T08:57:19.705Z,16.219999
2022-10-06T09:00:44.884Z,16.290001
2022-10-06T09:04:10.076Z,16.34
2022-10-06T09:07:35.304Z,16.35
2022-10-06T09:11:00.524Z,16.4
2022-10-06T09:14:25.738Z,16.42
2022-10-06T09:17:50.961Z,16.459999
2022-10-06T09:21:16.159Z,16.49
2022-10-06T09:24:44.882Z,16.549999
2022-10-06T09:28:06.569Z,16.6
2022-10-06T09:31:31.882Z,16.610001
2022-10-06T09:34:56.960Z,16.620001
2022-10-06T09:38:22.132Z,16.639999
2022-10-06T09:41:47.320Z,16.65
2022-10-06T09:45:12.506Z,16.65
2022-10-06T09:48:37.754Z,16.68
2022-10-06T09:52:03.008Z,16.719999
2022-10-06T09:55:28.159Z,16.799999
2022-10-06T09:58:53.354Z,16.85
2022-10-06T10:02:18.581Z,16.91
2022-10-06T10:05:43.750Z,16.969999
2022-10-06T10:09:08.959Z,17.059999
2022-10-06T10:12:34.204Z,17.120001
2022-10-06T10:15:59.429Z,17.18
2022-10-06T10:19:24.557Z,17.27
2022-10-06T10:22:49.813Z,17.370001
2022-10-06T10:26:15.041Z,17.440001
2022-10-06T10:29:40.177Z,17.52
2022-10-06T10:33:05.384Z,17.58
2022-10-06T10:36:30.732Z,17.620001
2022-10-06T10:39:55.901Z,17.690001
2022-10-06T10:43:21.106Z,17.76
2022-10-06T10:46:46.256Z,17.809999
2022-10-06T10:50:11.573Z,17.85
2022-10-06T10:53:38.863Z,17.91
2022-10-06T10:57:01.995Z,18.01
2022-10-06T11:00:27.166Z,18.110001
2022-10-06T11:03:52.320Z,18.18
2022-10-06T11:07:17.484Z,18.26
2022-10-06T11:10:42.650Z,18.34
2022-10-06T11:14:07.840Z,18.389999
2022-10-06T11:17:33.180Z,18.459999
2022-10-06T11:20:58.330Z,18.52
2022-10-06T11:24:23.555Z,18.57
2022-10-06T11:27:48.730Z,18.639999
2022-10-06T11:31:15.725Z,18.67
2022-10-06T11:34:41.989Z,18.66
2022-10-06T11:38:07.120Z,18.65
2022-10-06T11:41:32.318Z,18.66
2022-10-06T11:44:57.744Z,18.68
2022-10-06T11:48:22.688Z,18.74
2022-10-06T11:51:47.945Z,18.799999
2022-10-06T11:55:13.086Z,18.85
2022-10-06T11:58:42.131Z,18.860001
2022-10-06T12:02:03.521Z,18.809999
2022-10-06T12:05:55.118Z,18.68
2022-10-06T12:08:53.824Z,18.59
2022-10-06T12:12:19.049Z,18.57
2022-10-06T12:19:09.472Z,18.68
2022-10-06T12:22:34.631Z,18.68
2022-10-06T12:25:59.885Z,18.6
2022-10-06T12:29:25.041Z,18.51
2022-10-06T12:32:50.250Z,18.440001
2022-10-06T12:36:15.420Z,18.51
2022-10-06T12:39:40.647Z,18.6
2022-10-06T12:43:05.854Z,18.709999
2022-10-06T12:46:31.176Z,18.799999
2022-10-06T12:49:56.234Z,18.85
2022-10-06T12:53:21.398Z,18.940001
2022-10-06T12:56:46.556Z,19.01
2022-10-06T13:00:11.794Z,19.09
2022-10-06T13:03:36.973Z,19.190001
2022-10-06T13:07:05.070Z,19.200001
2022-10-06T13:10:27.359Z,19.219999
2022-10-06T13:13:52.544Z,19.120001
2022-10-06T13:17:17.806Z,19.030001
2022-10-06T13:20:42.900Z,18.93
2022-10-06T13:24:08.057Z,18.889999
2022-10-06T13:27:33.234Z,18.889999
2022-10-06T13:30:58.661Z,18.91
2022-10-06T13:34:23.679Z,18.959999
2022-10-06T13:37:48.837Z,19.01
2022-10-06T13:41:14.014Z,19.049999
2022-10-06T13:44:39.221Z,19.09
2022-10-06T13:48:04.368Z,19.1
2022-10-06T13:51:29.595Z,19.110001
2022-10-06T13:54:54.735Z,19.059999
2022-10-06T13:58:19.942Z,19.030001
2022-10-06T14:01:45.226Z,19
2022-10-06T14:05:10.292Z,18.950001
2022-10-06T14:08:35.513Z,18.91
2022-10-06T14:12:00.672Z,18.91
2022-10-06T14:15:26.023Z,18.91
2022-10-06T14:18:51.100Z,18.9
2022-10-06T14:22:16.275Z,18.91
2022-10-06T14:25:41.459Z,18.889999
2022-10-06T14:29:06.627Z,18.85
2022-10-06T15:02:31.146Z,16.200001
2022-10-06T15:05:56.225Z,17.120001
2022-10-06T15:09:21.466Z,17.33
2022-10-06T15:12:46.660Z,17.52
2022-10-06T15:16:11.913Z,17.67
2022-10-06T15:19:37.041Z,17.780001
2022-10-06T15:23:02.209Z,17.889999
2022-10-06T15:26:27.418Z,17.950001
2022-10-06T15:29:52.598Z,17.98
2022-10-06T15:33:17.804Z,17.950001
2022-10-06T15:36:43.010Z,17.92
2022-10-06T15:40:08.186Z,17.879999
2022-10-06T15:43:33.395Z,17.83
2022-10-06T15:46:58.695Z,17.780001
2022-10-06T15:50:23.789Z,17.74
2022-10-06T15:53:50.442Z,17.719999
2022-10-06T15:57:19.654Z,17.700001
2022-10-06T16:00:39.988Z,17.68
2022-10-06T16:04:05.188Z,17.65
2022-10-06T16:07:30.413Z,17.6
2022-10-06T16:10:55.625Z,17.540001
2022-10-06T16:14:20.799Z,17.469999
2022-10-06T16:17:45.950Z,17.42
2022-10-06T16:21:11.131Z,17.34
2022-10-06T16:24:36.322Z,17.27
2022-10-06T16:28:01.620Z,17.18
2022-10-06T16:31:26.776Z,17.08
2022-10-06T16:34:51.931Z,16.969999
2022-10-06T16:38:17.094Z,16.809999
2022-10-06T16:41:42.415Z,16.700001
2022-10-06T16:45:07.570Z,16.57
2022-10-06T16:48:32.731Z,16.440001
2022-10-06T16:51:57.908Z,16.33
2022-10-06T16:55:23.073Z,16.190001
2022-10-06T16:58:48.229Z,16.059999
2022-10-06T17:02:14.063Z,15.94
2022-10-06T17:05:39.023Z,15.82
2022-10-06T17:09:04.236Z,15.68
2022-10-06T17:12:29.428Z,15.55
2022-10-06T17:15:54.709Z,15.44
2022-10-06T17:19:19.855Z,15.35
2022-10-06T17:22:45.074Z,15.27
2022-10-06T17:26:10.288Z,15.2
2022-10-06T17:29:35.457Z,15.12
2022-10-06T17:33:00.618Z,15.06
2022-10-06T17:36:25.930Z,14.96
2022-10-06T17:39:51.051Z,14.89
2022-10-06T17:43:16.199Z,14.81
2022-10-06T17:46:41.369Z,14.71
2022-10-06T17:50:06.713Z,14.63
2022-10-06T17:53:31.949Z,14.57
2022-10-06T17:56:57.164Z,14.52
2022-10-06T18:00:22.444Z,14.45
2022-10-06T18:03:47.738Z,14.41
2022-10-06T18:07:12.982Z,14.34
2022-10-06T18:10:38.244Z,14.29
2022-10-06T18:14:03.492Z,14.26
2022-10-06T18:17:28.804Z,14.21
2022-10-06T18:20:54.127Z,14.18
2022-10-06T18:24:19.386Z,14.15
2022-10-06T18:27:44.780Z,14.1
2022-10-06T18:31:10.040Z,14.07
2022-10-06T18:38:00.661Z,14.03
2022-10-06T18:41:25.941Z,14.01
2022-10-06T18:44:51.317Z,13.95
2022-10-06T18:48:16.548Z,13.86
2022-10-06T18:51:41.854Z,13.82
2022-10-06T18:55:07.143Z,13.78
2022-10-06T18:58:32.425Z,13.76
2022-10-06T19:01:57.787Z,13.73
2022-10-06T19:05:22.952Z,13.76
2022-10-06T19:08:48.245Z,13.8
2022-10-06T19:12:13.513Z,13.82
2022-10-06T19:15:38.813Z,13.82
2022-10-06T19:19:04.154Z,13.83
2022-10-06T19:22:29.445Z,13.83
2022-10-06T19:25:54.684Z,13.85
2022-10-06T19:29:19.933Z,13.89
2022-10-06T19:32:45.215Z,13.9
2022-10-06T19:36:10.577Z,13.91
2022-10-06T19:39:35.813Z,13.93
2022-10-06T19:43:01.055Z,13.91
2022-10-06T19:46:26.445Z,13.92
2022-10-06T19:49:56.111Z,13.9
2022-10-06T19:53:19.277Z,13.88
2022-10-06T19:56:44.523Z,13.84
2022-10-06T20:00:09.932Z,13.81
2022-10-06T20:03:35.250Z,13.79
2022-10-06T20:07:00.542Z,13.73
2022-10-06T20:10:25.902Z,13.67
2022-10-06T20:13:51.128Z,13.64
2022-10-06T20:17:16.339Z,13.57
2022-10-06T20:20:41.588Z,13.51
2022-10-06T20:24:06.805Z,13.48
2022-10-06T20:27:32.053Z,13.45
2022-10-06T20:30:57.305Z,13.42
2022-10-06T20:34:22.486Z,13.4
2022-10-06T20:37:47.784Z,13.4
2022-10-06T20:41:12.994Z,13.38
2022-10-06T20:44:38.284Z,13.35
2022-10-06T20:48:03.502Z,13.31
2022-10-06T20:51:28.768Z,13.29
2022-10-06T20:54:53.993Z,13.29
2022-10-06T20:58:19.251Z,13.25
2022-10-06T21:01:44.874Z,13.18
2022-10-06T21:05:10.493Z,13.09
2022-10-06T21:08:36.275Z,13
2022-10-06T21:12:01.985Z,12.98
2022-10-06T21:15:27.720Z,13
2022-10-06T21:18:53.441Z,12.98
2022-10-06T21:22:19.114Z,12.9
2022-10-06T21:25:44.830Z,12.84
2022-10-06T21:29:10.547Z,12.81
2022-10-06T21:32:51.895Z,12.74
2022-10-06T21:36:32.950Z,12.68
2022-10-06T21:40:02.094Z,12.62
2022-10-06T21:43:24.426Z,12.56
2022-10-06T21:46:50.195Z,12.54
2022-10-06T21:50:15.871Z,12.52
2022-10-06T21:53:41.597Z,12.48
2022-10-06T21:57:07.319Z,12.46
2022-10-06T22:00:33.010Z,12.4
2022-10-06T22:03:58.731Z,12.36
2022-10-06T22:07:24.427Z,12.31
2022-10-06T22:10:50.150Z,12.29
2022-10-06T22:14:15.849Z,12.26
2022-10-06T22:17:41.838Z,12.24
2022-10-06T22:21:07.246Z,12.21
2022-10-06T22:24:32.957Z,12.19
2022-10-06T22:27:58.785Z,12.13
2022-10-06T22:31:26.157Z,12.11
2022-10-06T22:34:50.097Z,12.1
2022-10-06T22:38:15.813Z,12.05
2022-10-06T22:41:41.519Z,12.03
2022-10-06T22:45:07.253Z,12
2022-10-06T22:48:32.950Z,11.97
2022-10-06T22:51:58.634Z,11.93
2022-10-06T22:55:24.356Z,11.9
2022-10-06T22:58:50.070Z,11.87
2022-10-06T23:02:15.795Z,11.8
2022-10-06T23:05:41.462Z,11.73
2022-10-06T23:09:07.149Z,11.74
2022-10-06T23:12:32.875Z,11.74
2022-10-06T23:15:58.597Z,11.71
2022-10-06T23:19:24.319Z,11.68
2022-10-06T23:22:49.999Z,11.65
2022-10-06T23:26:15.726Z,11.61
2022-10-06T23:29:41.421Z,11.56
2022-10-06T23:33:07.151Z,11.5
2022-10-06T23:36:32.878Z,11.46
2022-10-06T23:39:58.561Z,11.4
2022-10-06T23:43:24.299Z,11.35
2022-10-06T23:46:50.011Z,11.32
2022-10-06T23:50:15.703Z,11.28
2022-10-06T23:53:41.449Z,11.22
2022-10-06T23:57:07.154Z,11.17
